createdAt,value
2018-10-16T00:01:27.350Z,100361.06
2018-10-16T00:03:56.589Z,100359.66
2018-10-16T00:06:25.685Z,100362.66
2018-10-16T00:08:54.732Z,100357.91
2018-10-16T00:11:23.926Z,100355.67
2018-10-16T00:13:53.013Z,100359.19
2018-10-16T00:16:22.246Z,100362.72
2018-10-16T00:18:51.299Z,100364.34
2018-10-16T00:21:20.445Z,100363.17
2018-10-16T00:23:49.593Z,100368.56
2018-10-16T00:26:18.720Z,100359.66
2018-10-16T00:28:47.819Z,100360.23
2018-10-16T00:31:19.899Z,100361.31
2018-10-16T00:33:48.991Z,100370.69
2018-10-16T00:36:18.108Z,100367.37
2018-10-16T00:38:47.232Z,100361.27
2018-10-16T00:41:16.356Z,100362.81
2018-10-16T00:43:45.510Z,100364.73
2018-10-16T00:46:14.750Z,100364.92
2018-10-16T00:48:43.901Z,100370.62
2018-10-16T00:51:13.046Z,100362.61
2018-10-16T00:53:42.174Z,100367.28
2018-10-16T00:56:11.337Z,100361.70
2018-10-16T00:58:40.388Z,100367.92
2018-10-16T01:01:09.616Z,100371.31
2018-10-16T01:03:38.747Z,100369.90
2018-10-16T01:06:07.884Z,100372.58
2018-10-16T01:08:36.993Z,100373.30
2018-10-16T01:11:10.185Z,100373.97
2018-10-16T01:13:39.602Z,100382.91
2018-10-16T01:16:08.756Z,100385.86
2018-10-16T01:18:37.860Z,100393.00
2018-10-16T01:21:07.370Z,100397.52
2018-10-16T01:23:36.575Z,100403.99
2018-10-16T01:26:05.951Z,100398.49
2018-10-16T01:28:35.212Z,100398.48
2018-10-16T01:31:04.345Z,100396.20
2018-10-16T01:33:33.513Z,100391.30
2018-10-16T01:36:02.635Z,100402.72
2018-10-16T01:38:31.765Z,100399.73
2018-10-16T01:41:08.374Z,100402.78
2018-10-16T01:43:37.948Z,100405.16
2018-10-16T01:46:07.031Z,100410.94
2018-10-16T01:48:36.253Z,100410.95
2018-10-16T01:51:05.434Z,100402.22
2018-10-16T01:53:41.171Z,100404.48
2018-10-16T01:56:10.277Z,100401.31
2018-10-16T01:58:39.510Z,100405.67
2018-10-16T02:01:08.645Z,100407.42
2018-10-16T02:06:30.996Z,100402.19
2018-10-16T02:09:00.184Z,100403.09
2018-10-16T02:11:29.304Z,100392.69
2018-10-16T02:13:58.405Z,100399.76
2018-10-16T02:16:27.500Z,100394.39
2018-10-16T02:18:56.657Z,100398.27
2018-10-16T02:21:25.840Z,100407.17
2018-10-16T02:23:55.077Z,100404.44
2018-10-16T02:26:24.193Z,100403.66
2018-10-16T02:28:53.322Z,100406.78
2018-10-16T02:31:22.460Z,100406.54
2018-10-16T02:33:51.609Z,100406.81
2018-10-16T02:36:20.941Z,100407.94
2018-10-16T02:38:50.129Z,100415.17
2018-10-16T02:41:19.219Z,100413.70
2018-10-16T02:43:48.438Z,100421.89
2018-10-16T02:46:17.587Z,100419.30
2018-10-16T02:48:46.783Z,100426.52
2018-10-16T02:51:15.898Z,100423.64
2018-10-16T02:53:45.332Z,100427.39
2018-10-16T02:56:14.474Z,100422.83
2018-10-16T02:58:44.143Z,100434.13
2018-10-16T03:01:13.565Z,100430.28
2018-10-16T03:03:43.113Z,100435.52
2018-10-16T03:06:12.873Z,100438.70
2018-10-16T03:08:42.053Z,100442.02
2018-10-16T03:11:11.146Z,100442.56
2018-10-16T03:13:40.259Z,100440.22
2018-10-16T03:16:09.476Z,100442.42
2018-10-16T03:18:38.577Z,100434.41
2018-10-16T03:21:07.750Z,100441.75
2018-10-16T03:23:36.885Z,100448.70
2018-10-16T03:26:06.065Z,100454.32
2018-10-16T03:28:35.266Z,100449.54
2018-10-16T03:31:04.432Z,100453.91
2018-10-16T03:33:33.585Z,100454.12
2018-10-16T03:36:02.742Z,100458.92
2018-10-16T03:38:31.861Z,100457.77
2018-10-16T03:41:01.045Z,100458.29
2018-10-16T03:43:30.180Z,100461.80
2018-10-16T03:45:59.369Z,100456.69
2018-10-16T03:48:28.462Z,100453.38
2018-10-16T03:50:57.635Z,100456.55
2018-10-16T03:53:26.792Z,100452.62
2018-10-16T03:55:55.905Z,100466.14
2018-10-16T03:58:25.025Z,100469.64
2018-10-16T04:00:54.142Z,100466.84
2018-10-16T04:03:23.270Z,100468.09
2018-10-16T04:05:52.477Z,100466.32
2018-10-16T04:08:21.573Z,100470.79
2018-10-16T04:10:50.676Z,100467.85
2018-10-16T04:13:19.818Z,100474.39
2018-10-16T04:15:48.996Z,100476.44
2018-10-16T04:18:18.118Z,100475.46
2018-10-16T04:20:47.314Z,100470.91
2018-10-16T04:23:16.379Z,100476.45
2018-10-16T04:25:45.513Z,100472.64
2018-10-16T04:28:14.609Z,100472.08
2018-10-16T04:30:43.753Z,100477.91
2018-10-16T04:33:12.881Z,100476.53
2018-10-16T04:35:41.992Z,100481.95
2018-10-16T04:38:11.189Z,100494.45
2018-10-16T04:40:40.237Z,100484.23
2018-10-16T04:43:09.364Z,100484.41
2018-10-16T04:45:38.490Z,100490.05
2018-10-16T04:48:07.690Z,100488.22
2018-10-16T04:50:36.767Z,100485.94
2018-10-16T04:53:06.356Z,100491.43
2018-10-16T04:55:35.520Z,100494.05
2018-10-16T04:58:04.693Z,100496.88
2018-10-16T05:00:33.816Z,100499.64
2018-10-16T05:03:03.325Z,100500.43
2018-10-16T05:05:32.486Z,100495.70
2018-10-16T05:08:01.609Z,100494.44
2018-10-16T05:10:30.761Z,100498.17
2018-10-16T05:13:00.070Z,100500.02
2018-10-16T05:15:31.416Z,100498.19
2018-10-16T05:18:00.566Z,100497.34
2018-10-16T05:20:29.677Z,100495.84
2018-10-16T05:22:59.971Z,100500.86
2018-10-16T05:25:30.072Z,100497.25
2018-10-16T05:27:59.395Z,100497.05
2018-10-16T05:30:28.463Z,100503.30
2018-10-16T05:32:57.713Z,100501.13
2018-10-16T05:35:26.817Z,100511.87
2018-10-16T05:37:55.990Z,100514.59
2018-10-16T05:40:25.157Z,100518.28
2018-10-16T05:42:54.287Z,100521.61
2018-10-16T05:45:23.843Z,100521.09
2018-10-16T05:47:53.111Z,100528.83
2018-10-16T05:50:22.399Z,100526.14
2018-10-16T05:52:51.685Z,100536.33
2018-10-16T05:55:20.991Z,100534.42
2018-10-16T05:57:50.160Z,100533.09
2018-10-16T06:00:29.959Z,100529.37
2018-10-16T06:02:59.141Z,100535.98
2018-10-16T06:05:28.371Z,100545.08
2018-10-16T06:07:57.576Z,100550.09
2018-10-16T06:10:26.826Z,100545.41
2018-10-16T06:12:56.141Z,100551.83
2018-10-16T06:15:25.350Z,100552.37
2018-10-16T06:17:54.530Z,100561.64
2018-10-16T06:20:23.836Z,100563.02
2018-10-16T06:22:52.984Z,100559.41
2018-10-16T06:25:22.297Z,100565.80
2018-10-16T06:27:51.489Z,100571.39
2018-10-16T06:30:20.754Z,100577.22
2018-10-16T06:32:50.737Z,100575.73
2018-10-16T06:35:19.914Z,100578.06
2018-10-16T06:37:49.156Z,100579.58
2018-10-16T06:40:18.352Z,100579.41
2018-10-16T06:42:47.744Z,100585.94
2018-10-16T06:45:17.005Z,100587.06
2018-10-16T06:47:46.201Z,100584.86
2018-10-16T06:50:15.406Z,100588.27
2018-10-16T06:52:44.963Z,100594.98
2018-10-16T06:55:14.236Z,100599.03
2018-10-16T06:57:43.546Z,100594.53
2018-10-16T07:00:12.722Z,100597.97
2018-10-16T07:02:42.007Z,100597.84
2018-10-16T07:05:11.489Z,100611.98
2018-10-16T07:07:40.718Z,100612.64
2018-10-16T07:10:10.525Z,100615.58
2018-10-16T07:12:39.925Z,100620.65
2018-10-16T07:15:09.620Z,100622.52
2018-10-16T07:17:38.933Z,100617.34
2018-10-16T07:20:09.225Z,100619.50
2018-10-16T07:22:38.555Z,100620.98
2018-10-16T07:25:08.885Z,100622.50
2018-10-16T07:27:39.029Z,100621.09
2018-10-16T07:30:11.033Z,100623.16
2018-10-16T07:32:40.177Z,100630.47
2018-10-16T07:35:10.599Z,100628.50
2018-10-16T07:37:40.480Z,100630.52
2018-10-16T07:40:10.811Z,100628.61
2018-10-16T07:42:40.454Z,100630.66
2018-10-16T07:45:09.789Z,100631.78
2018-10-16T07:47:39.254Z,100638.17
2018-10-16T07:50:10.486Z,100641.48
2018-10-16T07:52:39.839Z,100641.70
2018-10-16T07:55:14.560Z,100635.61
2018-10-16T07:57:44.244Z,100631.82
2018-10-16T08:00:13.889Z,100638.44
2018-10-16T08:02:44.054Z,100644.63
2018-10-16T08:05:13.427Z,100643.77
2018-10-16T08:07:42.907Z,100644.77
2018-10-16T08:10:13.695Z,100647.07
2018-10-16T08:12:43.646Z,100644.13
2018-10-16T08:15:12.912Z,100644.39
2018-10-16T08:17:42.468Z,100648.94
2018-10-16T08:20:11.657Z,100652.81
2018-10-16T08:22:40.858Z,100647.75
2018-10-16T08:25:09.981Z,100649.66
2018-10-16T08:27:39.236Z,100653.80
2018-10-16T08:30:09.394Z,100652.75
2018-10-16T08:32:38.548Z,100662.12
2018-10-16T08:35:07.767Z,100648.74
2018-10-16T08:39:52.666Z,100652.83
2018-10-16T08:43:37.370Z,100647.16
2018-10-16T08:46:17.432Z,100643.69
2018-10-16T08:48:57.643Z,100645.38
2018-10-16T08:51:32.145Z,100634.27
2018-10-16T08:54:01.361Z,100638.65
2018-10-16T08:56:30.992Z,100638.50
2018-10-16T08:59:00.717Z,100640.00
2018-10-16T09:01:30.287Z,100631.98
2018-10-16T09:04:00.012Z,100633.34
2018-10-16T09:06:29.329Z,100641.97
2018-10-16T09:08:58.588Z,100642.11
2018-10-16T09:11:27.741Z,100640.36
2018-10-16T09:13:57.005Z,100636.75
2018-10-16T09:16:26.225Z,100640.28
2018-10-16T09:18:55.415Z,100640.59
2018-10-16T09:21:24.678Z,100641.45
2018-10-16T09:23:53.888Z,100642.48
2018-10-16T09:26:23.188Z,100647.37
2018-10-16T09:28:52.380Z,100647.19
2018-10-16T09:31:21.482Z,100649.91
2018-10-16T09:33:50.687Z,100636.72
2018-10-16T09:36:19.901Z,100638.10
2018-10-16T09:38:49.198Z,100635.91
2018-10-16T09:41:18.673Z,100639.10
2018-10-16T09:43:47.929Z,100636.11
2018-10-16T09:46:17.181Z,100638.84
2018-10-16T09:48:46.392Z,100642.23
2018-10-16T09:51:15.596Z,100635.27
2018-10-16T09:53:44.812Z,100634.57
2018-10-16T09:56:14.033Z,100637.81
2018-10-16T09:58:43.209Z,100632.84
2018-10-16T10:01:17.434Z,100640.64
2018-10-16T10:03:46.621Z,100638.14
2018-10-16T10:06:15.887Z,100630.69
2018-10-16T10:08:45.078Z,100637.02
2018-10-16T10:11:14.459Z,100632.23
2018-10-16T10:13:43.664Z,100635.39
2018-10-16T10:16:12.926Z,100634.09
2018-10-16T10:18:42.262Z,100635.73
2018-10-16T10:21:11.521Z,100638.58
2018-10-16T10:23:40.755Z,100635.27
2018-10-16T10:26:10.043Z,100631.24
2018-10-16T10:28:39.284Z,100640.79
2018-10-16T10:31:08.657Z,100641.30
2018-10-16T10:33:37.978Z,100634.12
2018-10-16T10:36:07.181Z,100639.94
2018-10-16T10:38:36.421Z,100629.17
2018-10-16T10:41:05.727Z,100623.66
2018-10-16T10:43:34.975Z,100629.19
2018-10-16T10:46:04.267Z,100628.19
2018-10-16T10:48:33.373Z,100622.84
2018-10-16T10:51:02.795Z,100622.19
2018-10-16T10:53:31.790Z,100615.66
2018-10-16T10:56:00.963Z,100614.95
2018-10-16T10:58:30.249Z,100614.91
2018-10-16T11:00:59.389Z,100609.45
2018-10-16T11:03:28.722Z,100612.86
2018-10-16T11:05:57.795Z,100607.95
2018-10-16T11:08:26.922Z,100605.44
2018-10-16T11:10:56.163Z,100611.13
2018-10-16T11:13:25.411Z,100607.28
2018-10-16T11:15:54.642Z,100614.05
2018-10-16T11:18:23.861Z,100615.55
2018-10-16T11:20:53.211Z,100605.44
2018-10-16T11:23:22.361Z,100607.89
2018-10-16T11:25:51.560Z,100612.27
2018-10-16T11:28:20.716Z,100615.34
2018-10-16T11:30:49.930Z,100613.41
2018-10-16T11:33:19.058Z,100616.67
2018-10-16T11:35:48.297Z,100614.66
2018-10-16T11:38:17.589Z,100613.87
2018-10-16T11:40:46.733Z,100613.51
2018-10-16T11:43:16.092Z,100605.29
2018-10-16T11:45:45.539Z,100611.73
2018-10-16T11:48:14.856Z,100611.91
2018-10-16T11:50:44.082Z,100617.86
2018-10-16T11:53:14.113Z,100605.68
2018-10-16T11:55:43.298Z,100609.37
2018-10-16T11:58:12.660Z,100608.17
2018-10-16T12:00:41.866Z,100608.63
2018-10-16T12:03:11.092Z,100603.81
2018-10-16T12:05:40.182Z,100606.04
2018-10-16T12:08:09.363Z,100602.89
2018-10-16T12:10:38.579Z,100595.66
2018-10-16T12:13:07.897Z,100598.22
2018-10-16T12:15:37.102Z,100602.77
2018-10-16T12:18:13.095Z,100604.14
2018-10-16T12:20:48.061Z,100596.59
2018-10-16T12:23:17.390Z,100593.39
2018-10-16T12:25:46.522Z,100597.66
2018-10-16T12:28:15.708Z,100599.55
2018-10-16T12:30:44.875Z,100593.14
2018-10-16T12:33:14.229Z,100590.53
2018-10-16T12:35:43.333Z,100587.03
2018-10-16T12:38:12.730Z,100590.32
2018-10-16T12:40:42.030Z,100582.20
2018-10-16T12:43:11.448Z,100580.70
2018-10-16T12:45:40.598Z,100588.21
2018-10-16T12:48:09.845Z,100579.28
2018-10-16T12:50:39.065Z,100580.66
2018-10-16T12:53:08.882Z,100585.04
2018-10-16T12:55:38.482Z,100581.12
2018-10-16T12:58:07.910Z,100580.36
2018-10-16T13:00:37.152Z,100587.17
2018-10-16T13:03:06.467Z,100587.39
2018-10-16T13:05:35.715Z,100580.11
2018-10-16T13:08:04.986Z,100581.80
2018-10-16T13:10:34.181Z,100578.42
2018-10-16T13:13:03.317Z,100572.64
2018-10-16T13:15:32.885Z,100574.26
2018-10-16T13:18:02.313Z,100576.20
2018-10-16T13:20:31.856Z,100575.70
2018-10-16T13:23:01.432Z,100573.67
2018-10-16T13:25:30.895Z,100578.02
2018-10-16T13:28:00.310Z,100580.05
2018-10-16T13:30:29.906Z,100570.00
2018-10-16T13:32:59.359Z,100572.18
2018-10-16T13:35:29.076Z,100573.25
2018-10-16T13:37:58.455Z,100569.95
2018-10-16T13:40:27.990Z,100573.97
2018-10-16T13:42:57.457Z,100568.58
2018-10-16T13:45:26.677Z,100574.73
2018-10-16T13:47:55.930Z,100574.80
2018-10-16T13:50:25.137Z,100573.28
2018-10-16T13:52:54.396Z,100576.08
2018-10-16T13:55:23.592Z,100574.26
2018-10-16T13:57:52.836Z,100574.71
2018-10-16T14:00:22.280Z,100579.66
2018-10-16T14:02:52.766Z,100561.11
2018-10-16T14:05:22.325Z,100562.73
2018-10-16T14:07:51.564Z,100571.49
2018-10-16T14:10:20.839Z,100575.13
2018-10-16T14:12:50.170Z,100573.27
2018-10-16T14:15:19.804Z,100568.06
2018-10-16T14:17:49.013Z,100571.66
2018-10-16T14:20:18.268Z,100576.36
2018-10-16T14:22:47.494Z,100575.08
2018-10-16T14:25:17.012Z,100567.93
2018-10-16T14:27:46.295Z,100570.06
2018-10-16T14:30:16.533Z,100565.28
2018-10-16T14:32:45.694Z,100568.30
2018-10-16T14:35:15.321Z,100559.56
2018-10-16T14:37:44.616Z,100555.35
2018-10-16T14:40:15.111Z,100549.31
2018-10-16T14:42:44.754Z,100557.20
2018-10-16T14:45:14.574Z,100563.14
2018-10-16T14:47:43.749Z,100555.31
2018-10-16T14:50:14.195Z,100556.06
2018-10-16T14:52:43.550Z,100553.08
2018-10-16T14:55:12.763Z,100550.69
2018-10-16T14:57:42.148Z,100549.92
2018-10-16T15:00:12.826Z,100548.29
2018-10-16T15:02:42.174Z,100555.34
2018-10-16T15:05:12.410Z,100551.58
2018-10-16T15:07:41.762Z,100543.14
2018-10-16T15:10:11.369Z,100548.28
2018-10-16T15:12:40.786Z,100539.31
2018-10-16T15:15:10.290Z,100542.91
2018-10-16T15:17:39.547Z,100539.81
2018-10-16T15:20:10.281Z,100538.94
2018-10-16T15:22:39.559Z,100536.66
2018-10-16T15:25:09.656Z,100532.72
2018-10-16T15:27:38.905Z,100526.03
2018-10-16T15:30:09.381Z,100530.77
2018-10-16T15:32:38.711Z,100528.51
2018-10-16T15:35:09.265Z,100532.95
2018-10-16T15:37:38.517Z,100538.62
2018-10-16T15:40:09.112Z,100532.05
2018-10-16T15:42:38.363Z,100532.00
2018-10-16T15:45:09.271Z,100531.77
2018-10-16T15:47:38.683Z,100534.30
2018-10-16T15:50:08.408Z,100541.34
2018-10-16T15:52:37.621Z,100539.09
2018-10-16T15:55:07.810Z,100531.27
2018-10-16T15:57:37.146Z,100530.96
2018-10-16T16:00:09.640Z,100534.78
2018-10-16T16:02:38.954Z,100535.45
2018-10-16T16:05:08.177Z,100530.68
2018-10-16T16:07:37.434Z,100531.17
2018-10-16T16:10:08.253Z,100533.95
2018-10-16T16:12:37.852Z,100532.77
2018-10-16T16:15:08.497Z,100536.28
2018-10-16T16:17:38.039Z,100535.27
2018-10-16T16:20:08.670Z,100539.95
2018-10-16T16:22:37.890Z,100533.91
2018-10-16T16:25:08.573Z,100537.53
2018-10-16T16:27:39.610Z,100537.70
2018-10-16T16:30:10.814Z,100538.77
2018-10-16T16:32:40.190Z,100547.98
2018-10-16T16:35:09.487Z,100546.06
2018-10-16T16:37:38.658Z,100551.59
2018-10-16T16:40:09.798Z,100550.18
2018-10-16T16:42:38.944Z,100546.94
2018-10-16T16:45:09.059Z,100556.83
2018-10-16T16:47:38.215Z,100550.36
2018-10-16T16:50:08.871Z,100553.39
2018-10-16T16:52:38.248Z,100556.42
2018-10-16T16:55:09.054Z,100560.70
2018-10-16T16:57:38.224Z,100563.48
2018-10-16T17:00:10.002Z,100569.02
2018-10-16T17:02:39.694Z,100568.75
2018-10-16T17:05:09.399Z,100575.31
2018-10-16T17:07:38.522Z,100575.16
2018-10-16T17:10:08.581Z,100589.25
2018-10-16T17:12:38.194Z,100584.86
2018-10-16T17:15:09.374Z,100590.30
2018-10-16T17:17:39.029Z,100592.38
2018-10-16T17:20:09.231Z,100588.53
2018-10-16T17:22:38.418Z,100591.34
2018-10-16T17:25:09.116Z,100596.69
2018-10-16T17:27:38.197Z,100597.73
2018-10-16T17:30:13.371Z,100601.16
2018-10-16T17:32:43.110Z,100603.27
2018-10-16T17:35:12.935Z,100599.89
2018-10-16T17:37:43.251Z,100602.08
2018-10-16T17:40:15.001Z,100601.27
2018-10-16T17:42:44.241Z,100607.23
2018-10-16T17:45:15.036Z,100607.43
2018-10-16T17:47:44.181Z,100610.05
2018-10-16T17:50:15.434Z,100611.98
2018-10-16T17:52:44.678Z,100616.94
2018-10-16T17:55:14.500Z,100620.18
2018-10-16T17:57:43.759Z,100617.94
2018-10-16T18:00:15.147Z,100613.05
2018-10-16T18:02:44.926Z,100619.63
2018-10-16T18:05:14.788Z,100613.77
2018-10-16T18:07:44.687Z,100616.69
2018-10-16T18:10:13.848Z,100612.45
2018-10-16T18:12:43.098Z,100616.83
2018-10-16T18:15:13.420Z,100613.20
2018-10-16T18:17:43.249Z,100618.12
2018-10-16T18:20:14.361Z,100630.36
2018-10-16T18:22:43.875Z,100628.80
2018-10-16T18:25:13.125Z,100632.12
2018-10-16T18:27:43.217Z,100628.42
2018-10-16T18:30:12.803Z,100630.62
2018-10-16T18:32:42.230Z,100628.69
2018-10-16T18:35:11.884Z,100638.11
2018-10-16T18:37:42.271Z,100635.47
2018-10-16T18:40:12.337Z,100637.37
2018-10-16T18:42:48.171Z,100637.44
2018-10-16T18:45:17.424Z,100638.70
2018-10-16T18:47:46.792Z,100629.11
2018-10-16T18:50:16.055Z,100632.66
2018-10-16T18:52:45.810Z,100632.63
2018-10-16T18:55:15.859Z,100634.89
2018-10-16T18:57:45.091Z,100640.53
2018-10-16T19:00:16.651Z,100644.94
2018-10-16T19:02:46.133Z,100642.91
2018-10-16T19:05:15.336Z,100645.23
2018-10-16T19:07:44.583Z,100643.59
2018-10-16T19:10:13.693Z,100645.52
2018-10-16T19:12:43.150Z,100642.87
2018-10-16T19:15:13.850Z,100647.19
2018-10-16T19:17:43.870Z,100650.02
2018-10-16T19:20:14.184Z,100644.75
2018-10-16T19:22:44.153Z,100648.37
2018-10-16T19:25:14.823Z,100647.78
2018-10-16T19:27:44.206Z,100647.12
2018-10-16T19:30:13.770Z,100650.80
2018-10-16T19:32:42.969Z,100644.63
2018-10-16T19:35:13.655Z,100645.84
2018-10-16T19:37:43.019Z,100653.59
2018-10-16T19:40:12.608Z,100653.00
2018-10-16T19:42:41.882Z,100661.38
2018-10-16T19:45:12.412Z,100655.95
2018-10-16T19:47:41.584Z,100654.02
2018-10-16T19:50:11.413Z,100665.52
2018-10-16T19:52:40.741Z,100664.91
2018-10-16T19:55:10.039Z,100662.45
2018-10-16T19:57:39.300Z,100673.47
2018-10-16T20:00:09.699Z,100679.69
2018-10-16T20:02:39.014Z,100675.47
2018-10-16T20:05:08.902Z,100677.69
2018-10-16T20:07:38.062Z,100676.70
2018-10-16T20:10:08.916Z,100677.77
2018-10-16T20:12:38.120Z,100679.35
2018-10-16T20:15:09.130Z,100680.00
2018-10-16T20:17:38.422Z,100678.73
2018-10-16T20:20:08.542Z,100674.68
2018-10-16T20:22:37.738Z,100677.86
2018-10-16T20:25:07.860Z,100675.41
2018-10-16T20:27:37.161Z,100677.74
2018-10-16T20:30:07.690Z,100672.77
2018-10-16T20:32:36.830Z,100666.62
2018-10-16T20:35:06.101Z,100661.22
2018-10-16T20:37:35.635Z,100669.50
2018-10-16T20:40:04.696Z,100666.28
2018-10-16T20:42:33.846Z,100658.52
2018-10-16T20:45:03.005Z,100663.95
2018-10-16T20:47:32.195Z,100665.38
2018-10-16T20:50:01.327Z,100667.31
2018-10-16T20:52:30.503Z,100670.34
2018-10-16T20:54:59.781Z,100675.59
2018-10-16T20:57:28.979Z,100678.00
2018-10-16T20:59:58.737Z,100671.91
2018-10-16T21:02:27.891Z,100673.55
2018-10-16T21:05:03.713Z,100668.11
2018-10-16T21:07:32.930Z,100677.41
2018-10-16T21:10:02.061Z,100675.67
2018-10-16T21:12:31.156Z,100675.00
2018-10-16T21:15:00.591Z,100672.74
2018-10-16T21:17:30.203Z,100678.70
2018-10-16T21:19:59.419Z,100676.66
2018-10-16T21:22:28.566Z,100672.14
2018-10-16T21:24:57.716Z,100676.00
2018-10-16T21:27:26.901Z,100678.36
2018-10-16T21:29:56.084Z,100679.05
2018-10-16T21:32:25.199Z,100671.30
2018-10-16T21:34:54.403Z,100670.98
2018-10-16T21:37:23.574Z,100669.47
2018-10-16T21:39:55.223Z,100664.05
2018-10-16T21:42:24.401Z,100669.95
2018-10-16T21:44:53.543Z,100663.59
2018-10-16T21:47:22.644Z,100658.84
2018-10-16T21:49:51.793Z,100655.16
2018-10-16T21:52:20.932Z,100658.55
2018-10-16T21:54:50.250Z,100662.57
2018-10-16T21:57:19.378Z,100658.52
2018-10-16T21:59:48.685Z,100660.19
2018-10-16T22:02:22.778Z,100661.05
2018-10-16T22:04:51.946Z,100665.25
2018-10-16T22:07:21.042Z,100660.20
2018-10-16T22:09:50.220Z,100664.58
2018-10-16T22:12:19.388Z,100664.91
2018-10-16T22:14:48.574Z,100661.06
2018-10-16T22:17:17.707Z,100658.66
2018-10-16T22:19:46.855Z,100663.92
2018-10-16T22:22:15.999Z,100666.92
2018-10-16T22:24:45.181Z,100659.52
2018-10-16T22:27:14.311Z,100661.88
2018-10-16T22:29:43.477Z,100657.52
2018-10-16T22:32:12.653Z,100655.19
2018-10-16T22:34:41.830Z,100654.80
2018-10-16T22:37:10.988Z,100651.09
2018-10-16T22:39:40.084Z,100653.42
2018-10-16T22:42:09.203Z,100648.34
2018-10-16T22:44:38.411Z,100644.81
2018-10-16T22:47:07.700Z,100645.31
2018-10-16T22:49:36.917Z,100642.88
2018-10-16T22:52:06.475Z,100640.41
2018-10-16T22:54:42.124Z,100643.64
2018-10-16T22:57:11.278Z,100649.02
2018-10-16T22:59:40.766Z,100647.92
2018-10-16T23:02:09.962Z,100651.57
2018-10-16T23:04:39.192Z,100653.31
2018-10-16T23:07:08.328Z,100647.30
2018-10-16T23:09:37.550Z,100655.83
2018-10-16T23:12:07.189Z,100647.48
2018-10-16T23:14:36.324Z,100645.62
2018-10-16T23:17:05.500Z,100648.77
2018-10-16T23:19:34.697Z,100649.37
2018-10-16T23:22:03.761Z,100651.50
2018-10-16T23:24:32.880Z,100647.11
2018-10-16T23:27:01.968Z,100637.31
2018-10-16T23:29:31.057Z,100641.52
2018-10-16T23:32:00.243Z,100632.54
2018-10-16T23:34:29.379Z,100634.98
2018-10-16T23:36:58.562Z,100637.77
2018-10-16T23:39:27.680Z,100630.86
2018-10-16T23:41:56.807Z,100637.11
2018-10-16T23:44:25.986Z,100636.47
2018-10-16T23:46:55.252Z,100627.74
2018-10-16T23:52:17.456Z,100631.59
2018-10-16T23:54:46.658Z,100634.16
2018-10-16T23:57:15.827Z,100628.50
2018-10-16T23:59:44.968Z,100628.73
